Time;durP1;ratioP1;P1;durP2;ratioP2;P2;SDS_P1;SDS_P2;PMS_P1;PMS_P2;Temp;Humidity;BMP_temperature;BMP_pressure;BME280_temperature;BME280_humidity;BME280_pressure;Samples;Min_cycle;Max_cycle;Signal;HPM_P1;HPM_P2
2021/03/25 00:00:28;;;;;;;30.75;18.08;;;7.00;86.90;;;;;;5055612;28;20115;-71
2021/03/25 00:02:56;;;;;;;32.97;17.95;;;7.00;86.90;;;;;;5055179;28;20519;-71
2021/03/25 00:05:25;;;;;;;30.45;17.23;;;7.00;86.90;;;;;;5072607;28;20086;-71
2021/03/25 00:07:51;;;;;;;29.42;18.55;;;7.00;86.90;;;;;;5074697;28;20036;-71
2021/03/25 00:10:27;;;;;;;26.77;17.38;;;7.00;86.90;;;;;;5076984;28;20037;-71
2021/03/25 00:12:53;;;;;;;26.42;17.20;;;7.00;86.80;;;;;;5059325;28;20037;-71
2021/03/25 00:15:20;;;;;;;33.05;18.00;;;6.90;86.90;;;;;;5076794;28;20036;-71
2021/03/25 00:17:46;;;;;;;29.70;17.58;;;6.90;86.70;;;;;;5076786;28;20120;-71
2021/03/25 00:20:13;;;;;;;28.73;19.30;;;6.80;86.60;;;;;;5076821;28;20119;-71
2021/03/25 00:22:39;;;;;;;30.00;18.45;;;6.80;86.80;;;;;;5076944;28;20040;-71
2021/03/25 00:25:07;;;;;;;29.48;18.50;;;6.80;86.80;;;;;;5076422;28;20036;-71
2021/03/25 00:27:33;;;;;;;31.73;17.77;;;6.80;87.00;;;;;;5076614;28;20040;-71
2021/03/25 00:29:59;;;;;;;30.08;17.90;;;6.80;87.00;;;;;;5077288;28;20467;-71
2021/03/25 00:32:25;;;;;;;27.23;18.80;;;6.70;87.00;;;;;;5076746;28;20041;-71
2021/03/25 00:34:51;;;;;;;33.72;19.13;;;6.70;87.10;;;;;;5076298;28;20036;-71
2021/03/25 00:37:17;;;;;;;29.67;19.98;;;6.60;87.10;;;;;;5077324;28;20039;-71
2021/03/25 00:39:43;;;;;;;33.83;19.33;;;6.60;87.10;;;;;;5076691;28;20121;-72
2021/03/25 00:42:09;;;;;;;29.60;19.40;;;6.60;87.00;;;;;;5076380;28;20048;-71
2021/03/25 00:44:34;;;;;;;32.47;18.65;;;6.50;86.90;;;;;;5076431;28;20037;-71
2021/03/25 00:47:00;;;;;;;30.60;19.92;;;6.50;87.00;;;;;;5076246;28;20036;-71
2021/03/25 00:49:26;;;;;;;38.80;22.77;;;6.40;87.20;;;;;;5076470;28;20393;-71
2021/03/25 00:51:52;;;;;;;36.47;22.13;;;6.40;87.40;;;;;;5076569;28;20079;-71
2021/03/25 00:54:17;;;;;;;35.22;20.58;;;6.40;87.50;;;;;;5076399;28;20416;-71
2021/03/25 00:56:43;;;;;;;35.58;20.80;;;6.40;87.50;;;;;;5075833;28;20037;-71
2021/03/25 00:59:09;;;;;;;35.00;21.77;;;6.30;87.30;;;;;;5058449;28;20029;-71
2021/03/25 01:01:36;;;;;;;46.90;21.73;;;6.30;87.30;;;;;;5076042;28;20036;-71
2021/03/25 01:04:02;;;;;;;36.33;21.98;;;6.30;87.50;;;;;;5076040;28;20106;-71
2021/03/25 01:06:28;;;;;;;42.17;22.35;;;6.20;87.30;;;;;;5075668;28;20045;-71
2021/03/25 01:08:54;;;;;;;33.90;21.33;;;6.20;87.50;;;;;;5076029;28;20037;-71
2021/03/25 01:11:23;;;;;;;34.13;20.58;;;6.20;87.70;;;;;;5075926;28;20043;-71
2021/03/25 01:13:49;;;;;;;35.67;22.05;;;6.20;88.40;;;;;;5075782;28;20043;-71
2021/03/25 01:16:20;;;;;;;30.23;19.95;;;6.20;87.70;;;;;;5075375;28;20484;-71
2021/03/25 01:18:46;;;;;;;35.92;21.90;;;6.20;87.70;;;;;;5075690;28;20044;-71
2021/03/25 01:21:12;;;;;;;42.42;23.25;;;6.20;87.80;;;;;;5075770;28;20047;-71
2021/03/25 01:23:37;;;;;;;36.90;22.80;;;6.20;88.00;;;;;;5076143;28;20064;-71
2021/03/25 01:26:03;;;;;;;35.55;23.73;;;6.20;88.10;;;;;;5075066;28;20037;-71
2021/03/25 01:28:29;;;;;;;38.00;23.58;;;6.20;88.00;;;;;;5075537;28;20120;-71
2021/03/25 01:30:55;;;;;;;32.65;22.50;;;6.20;88.10;;;;;;5075814;28;20044;-71
2021/03/25 01:33:22;;;;;;;37.38;24.35;;;6.20;88.10;;;;;;5075677;28;20044;-71
2021/03/25 01:35:48;;;;;;;38.17;23.35;;;6.20;88.10;;;;;;5075075;28;20044;-71
2021/03/25 01:38:17;;;;;;;46.60;26.73;;;6.10;88.30;;;;;;5075804;28;20040;-71
2021/03/25 01:40:52;;;;;;;47.88;25.77;;;6.10;88.20;;;;;;5075663;28;20037;-71
2021/03/25 01:43:27;;;;;;;41.55;25.00;;;6.10;88.80;;;;;;5075542;28;20037;-71
2021/03/25 01:45:58;;;;;;;38.08;25.13;;;6.20;88.80;;;;;;5075190;28;20063;-71
2021/03/25 01:48:30;;;;;;;44.08;25.58;;;6.20;88.80;;;;;;5075500;28;20036;-71
2021/03/25 01:51:01;;;;;;;45.50;27.20;;;6.10;88.60;;;;;;5075599;28;20481;-71
2021/03/25 01:53:53;;;;;;;38.80;24.67;;;6.20;88.90;;;;;;5075666;28;20061;-71
2021/03/25 01:56:43;;;;;;;37.70;24.02;;;6.20;89.10;;;;;;5074743;28;20042;-71
2021/03/25 01:59:28;;;;;;;46.65;26.55;;;6.20;89.20;;;;;;5075086;28;20029;-71
2021/03/25 02:02:18;;;;;;;51.25;26.52;;;6.10;88.80;;;;;;5074914;28;20037;-71
2021/03/25 02:04:57;;;;;;;42.35;25.20;;;6.10;89.00;;;;;;5074796;28;20055;-71
2021/03/25 02:07:42;;;;;;;35.92;24.55;;;6.10;89.10;;;;;;5074801;28;20444;-71
2021/03/25 02:10:13;;;;;;;40.97;25.67;;;6.10;89.20;;;;;;5075100;28;20427;-71
2021/03/25 02:12:58;;;;;;;43.45;25.23;;;6.00;89.10;;;;;;5074787;28;20045;-71
2021/03/25 02:15:32;;;;;;;45.47;25.98;;;6.00;89.20;;;;;;5074233;28;20072;-71
2021/03/25 02:18:10;;;;;;;44.25;25.27;;;6.00;89.10;;;;;;5074564;28;20119;-71
2021/03/25 02:21:14;;;;;;;50.15;26.15;;;6.10;89.20;;;;;;5074672;28;20048;-71
2021/03/25 02:24:36;;;;;;;39.92;25.08;;;6.00;89.20;;;;;;5074640;28;20036;-71
2021/03/25 02:27:26;;;;;;;38.95;23.75;;;6.00;89.40;;;;;;4973706;28;20242;-71
2021/03/25 02:30:03;;;;;;;45.47;26.38;;;6.00;89.20;;;;;;4973273;28;20065;-71
2021/03/25 02:32:37;;;;;;;41.63;24.15;;;6.00;89.30;;;;;;5057792;28;20060;-71
2021/03/25 02:35:28;;;;;;;37.30;24.63;;;5.90;89.30;;;;;;5074199;28;20074;-71
2021/03/25 02:38:05;;;;;;;45.63;26.33;;;5.90;89.40;;;;;;5074556;28;20130;-71
2021/03/25 02:40:39;;;;;;;44.10;25.88;;;5.90;89.40;;;;;;5074445;28;20041;-71
2021/03/25 02:43:19;;;;;;;45.53;25.88;;;5.90;89.30;;;;;;5073990;28;20082;-71
2021/03/25 02:46:23;;;;;;;47.38;25.48;;;5.90;89.50;;;;;;5073852;28;20378;-71
2021/03/25 02:48:50;;;;;;;;;;;5.90;89.60;;;;;;5069770;28;20048;-71
2021/03/25 02:51:21;;;;;;;43.00;25.02;;;5.80;90.10;;;;;;5074143;28;19928;-71
2021/03/25 02:53:48;;;;;;;48.22;28.02;;;5.80;89.70;;;;;;5073919;28;20499;-71
2021/03/25 02:56:39;;;;;;;46.95;26.65;;;5.80;90.00;;;;;;5055720;28;20044;-71
2021/03/25 02:59:13;;;;;;;45.50;27.02;;;5.80;90.00;;;;;;5073982;28;20075;-71
2021/03/25 03:01:43;;;;;;;53.47;31.25;;;5.70;89.80;;;;;;5074522;28;20160;-71
2021/03/25 03:04:17;;;;;;;55.25;27.33;;;5.70;90.00;;;;;;5073861;28;20067;-71
2021/03/25 03:06:48;;;;;;;51.00;27.33;;;5.80;90.00;;;;;;5073512;28;20083;-71
2021/03/25 03:09:20;;;;;;;51.03;27.92;;;5.70;90.10;;;;;;5073904;28;20041;-71
2021/03/25 03:11:49;;;;;;;55.40;28.90;;;5.70;90.10;;;;;;5073749;28;20032;-71
2021/03/25 03:14:25;;;;;;;50.80;28.38;;;5.70;90.10;;;;;;5074013;28;20446;-71
2021/03/25 03:16:59;;;;;;;50.38;29.08;;;5.70;90.20;;;;;;5073466;28;20059;-71
2021/03/25 03:19:33;;;;;;;52.75;29.00;;;5.80;90.30;;;;;;5073709;28;20036;-71
2021/03/25 03:22:02;;;;;;;53.03;29.80;;;5.80;90.20;;;;;;5073355;28;20044;-71
2021/03/25 03:24:28;;;;;;;52.20;29.20;;;5.70;90.30;;;;;;5072952;28;20424;-71
2021/03/25 03:27:16;;;;;;;52.80;28.42;;;5.70;90.30;;;;;;5073454;28;20033;-71
2021/03/25 03:29:44;;;;;;;50.95;29.45;;;5.70;90.40;;;;;;5073726;28;20132;-71
2021/03/25 03:32:36;;;;;;;49.75;28.75;;;5.70;90.30;;;;;;5073974;28;20487;-71
2021/03/25 03:35:11;;;;;;;48.85;29.52;;;5.70;90.40;;;;;;5073168;28;20562;-71
2021/03/25 03:37:41;;;;;;;52.42;30.10;;;5.70;90.40;;;;;;5073233;28;20036;-71
2021/03/25 03:40:17;;;;;;;49.00;29.30;;;5.70;90.30;;;;;;5055671;28;20464;-71
2021/03/25 03:42:44;;;;;;;53.10;28.88;;;5.70;90.30;;;;;;5073282;28;20488;-71
2021/03/25 03:45:13;;;;;;;53.90;30.48;;;5.70;90.20;;;;;;5072946;28;20043;-71
2021/03/25 03:47:42;;;;;;;51.30;29.63;;;5.60;90.20;;;;;;5073102;28;20041;-71
2021/03/25 03:50:18;;;;;;;50.30;29.38;;;5.60;90.10;;;;;;5055445;28;20036;-71
2021/03/25 03:52:48;;;;;;;48.80;27.90;;;5.60;90.10;;;;;;5073259;28;20044;-71
2021/03/25 03:55:15;;;;;;;47.42;28.23;;;5.60;90.10;;;;;;5072805;28;20493;-71
2021/03/25 03:58:13;;;;;;;53.47;29.80;;;5.60;90.10;;;;;;5072991;28;20482;-71
2021/03/25 04:00:57;;;;;;;44.78;26.88;;;5.60;90.20;;;;;;5073029;28;20539;-71
2021/03/25 04:03:41;;;;;;;47.88;27.90;;;5.50;90.20;;;;;;5072958;28;20051;-71
2021/03/25 04:06:11;;;;;;;;;;;5.50;90.20;;;;;;5073097;28;20103;-71
2021/03/25 04:08:53;;;;;;;48.47;27.88;;;5.50;90.40;;;;;;5073082;28;19916;-71
2021/03/25 04:11:30;;;;;;;46.78;28.73;;;5.40;90.20;;;;;;5072941;28;20044;-71
2021/03/25 04:14:01;;;;;;;48.75;29.35;;;5.40;90.00;;;;;;5073540;28;20391;-71
2021/03/25 04:16:29;;;;;;;51.78;27.90;;;5.40;90.00;;;;;;5072711;28;20047;-71
2021/03/25 04:19:24;;;;;;;50.80;28.13;;;5.40;89.90;;;;;;5072597;28;20029;-71
2021/03/25 04:22:01;;;;;;;49.33;27.33;;;5.40;90.20;;;;;;5069888;28;20076;-71
2021/03/25 04:24:32;;;;;;;48.50;28.88;;;5.30;90.00;;;;;;5072823;28;20126;-71
2021/03/25 04:27:10;;;;;;;47.50;28.58;;;5.30;90.10;;;;;;5072832;28;20496;-71
2021/03/25 04:29:59;;;;;;;50.60;29.38;;;5.30;90.20;;;;;;5072839;28;20036;-71
2021/03/25 04:32:26;;;;;;;54.95;31.73;;;5.30;90.10;;;;;;5072867;28;20040;-71
2021/03/25 04:34:52;;;;;;;54.47;30.02;;;5.30;90.20;;;;;;5054617;28;20036;-71
2021/03/25 04:37:19;;;;;;;52.08;31.10;;;5.30;90.10;;;;;;5072740;28;20036;-71
2021/03/25 04:39:47;;;;;;;54.00;30.63;;;5.20;90.40;;;;;;5073247;28;20123;-71
2021/03/25 04:42:13;;;;;;;52.45;30.08;;;5.20;90.30;;;;;;5072478;28;20115;-71
2021/03/25 04:44:52;;;;;;;61.22;31.13;;;5.30;90.30;;;;;;5072298;28;20039;-71
2021/03/25 04:47:22;;;;;;;58.53;31.20;;;5.20;90.30;;;;;;5072901;28;20037;-71
2021/03/25 04:49:56;;;;;;;59.50;32.42;;;5.30;90.40;;;;;;5073107;28;20028;-71
2021/03/25 04:52:24;;;;;;;54.08;30.58;;;5.30;90.40;;;;;;5073046;28;20044;-71
2021/03/25 04:54:51;;;;;;;54.75;30.15;;;5.20;90.20;;;;;;5074938;28;20063;-72
2021/03/25 04:57:28;;;;;;;53.95;31.42;;;5.20;90.20;;;;;;5058414;28;20048;-71
2021/03/25 04:59:56;;;;;;;62.17;33.00;;;5.20;90.30;;;;;;5076015;28;20094;-71
2021/03/25 05:02:23;;;;;;;55.63;31.20;;;5.20;90.30;;;;;;5058796;28;20073;-71
2021/03/25 05:04:53;;;;;;;60.10;33.33;;;5.20;90.30;;;;;;5076304;28;20069;-71
2021/03/25 05:07:27;;;;;;;58.05;31.25;;;5.20;90.30;;;;;;5076201;28;20044;-71
2021/03/25 05:09:55;;;;;;;64.43;35.33;;;5.20;90.30;;;;;;5076165;28;20048;-71
2021/03/25 05:12:21;;;;;;;64.53;34.50;;;5.20;90.40;;;;;;5075813;28;20074;-71
2021/03/25 05:14:50;;;;;;;64.00;35.35;;;5.00;90.60;;;;;;5075495;28;20115;-71
2021/03/25 05:17:22;;;;;;;63.88;33.75;;;5.10;90.60;;;;;;5075460;28;20037;-71
2021/03/25 05:19:56;;;;;;;66.25;34.75;;;5.10;90.60;;;;;;5075980;28;20036;-71
2021/03/25 05:22:40;;;;;;;65.88;34.03;;;5.10;90.50;;;;;;5075972;28;20078;-71
2021/03/25 05:25:24;;;;;;;66.93;34.72;;;5.10;90.60;;;;;;5075585;28;20052;-72
2021/03/25 05:28:08;;;;;;;63.17;34.75;;;5.20;90.60;;;;;;5075704;28;20476;-71
2021/03/25 05:30:38;;;;;;;60.88;33.00;;;5.10;90.50;;;;;;5076139;28;20033;-72
2021/03/25 05:33:13;;;;;;;63.00;34.60;;;5.10;90.50;;;;;;5075988;28;20040;-71
2021/03/25 05:35:46;;;;;;;60.15;34.30;;;5.20;90.60;;;;;;5075048;28;20044;-71
2021/03/25 05:38:12;;;;;;;57.15;32.50;;;5.20;90.60;;;;;;5076100;28;20135;-71
2021/03/25 05:40:40;;;;;;;64.95;33.70;;;5.10;90.50;;;;;;5075363;28;20060;-72
2021/03/25 05:43:23;;;;;;;63.58;33.72;;;5.10;90.50;;;;;;5075443;28;20037;-71
2021/03/25 05:46:12;;;;;;;59.88;31.02;;;5.20;90.50;;;;;;5074905;28;20051;-71
2021/03/25 05:49:15;;;;;;;56.63;31.20;;;5.20;90.50;;;;;;5075347;28;20047;-71
2021/03/25 05:52:04;;;;;;;61.17;32.60;;;5.20;90.40;;;;;;5075199;28;20072;-71
2021/03/25 05:54:39;;;;;;;64.68;33.45;;;5.20;90.40;;;;;;5075017;28;20037;-72
2021/03/25 05:57:13;;;;;;;61.72;33.00;;;5.20;90.50;;;;;;5074995;28;20093;-71
2021/03/25 06:00:00;;;;;;;58.95;32.25;;;5.30;90.40;;;;;;5075158;28;20037;-71
2021/03/25 06:02:39;;;;;;;61.92;34.05;;;5.30;90.50;;;;;;5074827;28;20040;-71
2021/03/25 06:05:08;;;;;;;57.53;32.40;;;5.30;90.40;;;;;;5073676;28;20480;-71
2021/03/25 06:07:49;;;;;;;63.30;33.20;;;5.40;90.40;;;;;;5074834;28;20040;-71
2021/03/25 06:10:20;;;;;;;61.78;34.13;;;5.50;90.40;;;;;;5074799;28;20064;-71
2021/03/25 06:13:10;;;;;;;67.65;35.22;;;5.50;90.40;;;;;;5074853;28;20041;-71
2021/03/25 06:16:13;;;;;;;63.75;34.88;;;5.60;90.40;;;;;;5074254;28;20118;-71
2021/03/25 06:19:02;;;;;;;70.65;35.75;;;5.60;90.40;;;;;;5074662;28;20044;-72
2021/03/25 06:21:44;;;;;;;67.65;35.60;;;5.70;90.30;;;;;;5074809;28;20041;-71
2021/03/25 06:24:34;;;;;;;73.88;36.03;;;5.80;90.30;;;;;;5075229;28;20041;-71
2021/03/25 06:27:25;;;;;;;69.00;34.58;;;5.90;90.20;;;;;;5074802;28;20060;-73
2021/03/25 06:29:56;;;;;;;69.95;34.55;;;6.10;90.10;;;;;;5074286;28;20040;-72
2021/03/25 06:32:46;;;;;;;64.03;33.45;;;6.20;89.70;;;;;;5074785;28;20090;-72
2021/03/25 06:35:16;;;;;;;71.78;35.38;;;6.40;89.40;;;;;;5074032;28;20062;-72
2021/03/25 06:37:48;;;;;;;64.47;35.03;;;6.50;88.70;;;;;;5074150;28;20048;-73
2021/03/25 06:40:27;;;;;;;65.20;36.08;;;6.60;88.60;;;;;;5074118;28;20408;-72
2021/03/25 06:43:26;;;;;;;63.38;33.15;;;6.70;88.30;;;;;;5073953;28;20044;-72
2021/03/25 06:46:06;;;;;;;62.97;35.53;;;6.80;87.80;;;;;;5055827;28;20039;-73
2021/03/25 06:48:52;;;;;;;63.13;35.22;;;7.00;87.70;;;;;;5073972;28;20486;-72
2021/03/25 06:51:35;;;;;;;63.25;35.05;;;7.20;87.00;;;;;;5073837;28;20553;-73
2021/03/25 06:54:25;;;;;;;58.47;32.43;;;7.30;87.20;;;;;;5074135;28;20044;-73
2021/03/25 06:56:59;;;;;;;65.65;36.15;;;7.40;86.70;;;;;;5073914;28;20048;-73
2021/03/25 06:59:29;;;;;;;62.35;34.53;;;7.50;87.00;;;;;;5073965;28;20037;-73
2021/03/25 07:02:12;;;;;;;66.32;35.67;;;7.60;86.70;;;;;;5074170;28;20048;-73
2021/03/25 07:04:43;;;;;;;63.45;35.55;;;7.90;86.00;;;;;;5073666;28;20443;-73
2021/03/25 07:07:19;;;;;;;67.10;34.40;;;8.10;85.90;;;;;;5073594;28;20484;-73
2021/03/25 07:09:45;;;;;;;64.30;35.17;;;8.30;85.20;;;;;;5073651;28;20369;-73
2021/03/25 07:12:23;;;;;;;63.30;35.10;;;8.40;85.10;;;;;;5073641;28;20042;-73
2021/03/25 07:14:50;;;;;;;72.07;37.30;;;8.60;85.00;;;;;;5073235;28;20484;-73
2021/03/25 07:17:48;;;;;;;75.55;40.13;;;8.70;84.90;;;;;;5055425;28;20123;-73
2021/03/25 07:20:28;;;;;;;76.70;38.22;;;8.90;85.00;;;;;;5068531;28;20049;-73
2021/03/25 07:22:59;;;;;;;75.05;37.78;;;9.00;84.20;;;;;;5055567;28;20463;-73
2021/03/25 07:25:26;;;;;;;67.50;38.17;;;9.10;84.00;;;;;;5073032;28;20037;-73
2021/03/25 07:27:53;;;;;;;73.05;38.15;;;9.20;83.70;;;;;;5073389;28;20099;-73
2021/03/25 07:30:22;;;;;;;77.80;39.53;;;9.20;83.70;;;;;;5073208;28;20360;-73
2021/03/25 07:33:00;;;;;;;65.13;36.45;;;9.30;83.70;;;;;;5073149;28;20052;-73
2021/03/25 07:35:29;;;;;;;74.30;39.63;;;9.30;83.50;;;;;;5073153;28;20045;-73
2021/03/25 07:37:57;;;;;;;73.15;40.25;;;9.30;83.80;;;;;;5073461;28;20465;-73
2021/03/25 07:40:28;;;;;;;74.03;39.97;;;9.60;83.60;;;;;;5073219;28;20036;-73
2021/03/25 07:42:56;;;;;;;67.30;39.97;;;9.90;82.90;;;;;;5073237;28;20153;-73
2021/03/25 07:45:33;;;;;;;77.32;42.53;;;10.10;82.20;;;;;;5072754;28;20451;-73
2021/03/25 07:48:28;;;;;;;73.72;43.10;;;10.30;81.40;;;;;;5055388;28;20085;-73
2021/03/25 07:51:12;;;;;;;75.03;40.05;;;10.60;80.80;;;;;;5051841;28;20045;-73
2021/03/25 07:53:39;;;;;;;74.70;42.90;;;10.90;79.50;;;;;;5055177;28;20037;-73
2021/03/25 07:56:11;;;;;;;71.90;40.45;;;11.10;79.20;;;;;;5072799;28;20032;-73
2021/03/25 07:58:45;;;;;;;68.28;40.05;;;11.20;78.10;;;;;;5073058;28;20043;-73
2021/03/25 08:01:16;;;;;;;82.15;43.20;;;11.50;77.90;;;;;;5073551;28;20033;-73
2021/03/25 08:03:54;;;;;;;71.80;40.25;;;11.70;77.20;;;;;;5073222;28;20048;-73
2021/03/25 08:06:33;;;;;;;67.20;39.38;;;11.90;76.20;;;;;;5072677;28;20059;-73
2021/03/25 08:09:16;;;;;;;73.65;39.60;;;12.00;75.70;;;;;;5073028;28;20043;-73
2021/03/25 08:12:01;;;;;;;70.82;39.40;;;12.20;74.50;;;;;;5073113;28;20185;-73
2021/03/25 08:14:35;;;;;;;68.97;39.33;;;12.30;74.30;;;;;;5072820;28;20484;-73
2021/03/25 08:17:22;;;;;;;70.85;39.47;;;12.50;74.30;;;;;;5072889;28;20029;-73
2021/03/25 08:20:16;;;;;;;72.40;41.22;;;12.60;74.20;;;;;;5072491;28;20052;-73
2021/03/25 08:23:05;;;;;;;73.13;41.10;;;12.90;73.40;;;;;;5072788;28;20048;-73
2021/03/25 08:25:44;;;;;;;75.20;40.80;;;13.00;73.30;;;;;;5054772;28;20036;-73
2021/03/25 08:28:37;;;;;;;70.68;41.00;;;12.90;71.90;;;;;;5073389;28;20037;-73
2021/03/25 08:31:29;;;;;;;66.00;38.92;;;12.50;70.50;;;;;;5076833;28;20044;-73
2021/03/25 08:34:19;;;;;;;66.57;38.97;;;12.40;72.20;;;;;;5071723;28;20550;-73
2021/03/25 08:37:11;;;;;;;65.93;37.80;;;12.50;73.00;;;;;;5076479;28;20148;-72
2021/03/25 08:39:56;;;;;;;69.57;37.58;;;12.50;72.60;;;;;;5077084;28;20028;-72
2021/03/25 08:42:41;;;;;;;71.10;37.65;;;12.30;72.90;;;;;;5076339;28;20044;-72
2021/03/25 08:45:09;;;;;;;69.18;39.22;;;12.10;73.00;;;;;;5076060;28;20488;-72
2021/03/25 08:47:46;;;;;;;63.42;39.03;;;12.30;74.50;;;;;;5058933;28;20075;-72
2021/03/25 08:50:30;;;;;;;60.92;35.08;;;12.60;73.90;;;;;;5076525;28;20472;-71
2021/03/25 08:52:59;;;;;;;63.88;37.60;;;12.40;72.10;;;;;;5076484;28;20043;-71
2021/03/25 08:55:38;;;;;;;55.85;34.28;;;12.40;73.80;;;;;;5075931;28;20041;-72
2021/03/25 08:58:11;;;;;;;60.90;33.95;;;12.40;73.30;;;;;;5076063;28;20499;-71
2021/03/25 09:00:40;;;;;;;61.53;34.22;;;12.60;74.20;;;;;;5076375;28;20483;-71
2021/03/25 09:03:25;;;;;;;49.42;31.63;;;12.70;73.80;;;;;;5058115;28;20047;-72
2021/03/25 09:05:57;;;;;;;57.85;32.13;;;12.70;72.70;;;;;;5075862;28;20484;-72
2021/03/25 09:08:24;;;;;;;54.88;33.35;;;12.80;73.00;;;;;;5076131;28;20032;-72
2021/03/25 09:10:57;;;;;;;55.80;33.05;;;12.90;73.00;;;;;;5075916;28;20037;-72
2021/03/25 09:13:29;;;;;;;57.45;34.20;;;12.90;72.40;;;;;;5076087;28;20047;-72
2021/03/25 09:15:57;;;;;;;56.45;35.45;;;13.00;72.60;;;;;;5075485;28;20097;-72
2021/03/25 09:18:28;;;;;;;56.78;32.42;;;13.10;72.90;;;;;;5075637;28;20047;-71
2021/03/25 09:20:56;;;;;;;48.00;30.38;;;13.10;72.70;;;;;;5075856;28;20549;-72
2021/03/25 09:23:31;;;;;;;49.85;29.15;;;13.00;72.50;;;;;;5075861;28;20036;-72
2021/03/25 09:26:10;;;;;;;52.20;30.10;;;12.90;71.20;;;;;;5075173;28;20037;-73
2021/03/25 09:29:04;;;;;;;44.80;27.77;;;12.80;72.40;;;;;;5076079;28;20033;-72
2021/03/25 09:31:33;;;;;;;48.45;27.25;;;12.80;71.10;;;;;;5075701;28;20037;-72
2021/03/25 09:34:00;;;;;;;41.97;26.85;;;12.80;72.40;;;;;;5075486;28;20036;-72
2021/03/25 09:36:26;;;;;;;45.40;27.88;;;12.80;72.20;;;;;;5075081;28;20040;-72
2021/03/25 09:38:58;;;;;;;47.28;26.75;;;12.80;72.40;;;;;;5075734;28;20090;-71
2021/03/25 09:41:29;;;;;;;48.60;25.75;;;12.80;70.90;;;;;;5075572;28;20041;-72
2021/03/25 09:44:19;;;;;;;42.83;24.35;;;12.80;71.00;;;;;;5055826;28;20055;-72
2021/03/25 09:46:47;;;;;;;43.03;26.55;;;12.80;71.20;;;;;;5055173;28;20067;-72
2021/03/25 09:49:24;;;;;;;48.05;26.27;;;12.80;71.70;;;;;;5055647;28;20048;-71
2021/03/25 09:52:18;;;;;;;43.80;25.50;;;13.00;71.40;;;;;;5021110;28;20136;-72
2021/03/25 09:54:47;;;;;;;40.00;25.23;;;13.20;70.60;;;;;;5054832;28;20044;-72
2021/03/25 09:57:18;;;;;;;37.78;24.13;;;13.30;71.50;;;;;;5055271;28;20033;-72
2021/03/25 09:59:49;;;;;;;39.75;23.30;;;13.50;71.10;;;;;;5055055;28;20115;-72
2021/03/25 10:02:40;;;;;;;39.38;23.83;;;13.60;69.90;;;;;;5055045;28;20036;-72
2021/03/25 10:05:33;;;;;;;40.55;23.55;;;13.50;68.70;;;;;;5054493;28;20068;-72
2021/03/25 10:08:03;;;;;;;44.30;23.95;;;13.70;69.10;;;;;;5055171;28;20041;-71
2021/03/25 10:10:41;;;;;;;36.80;21.92;;;13.70;68.40;;;;;;5054697;28;20524;-71
2021/03/25 10:13:14;;;;;;;37.47;22.75;;;13.80;68.50;;;;;;5054832;28;20056;-71
2021/03/25 10:15:48;;;;;;;33.85;21.33;;;13.80;68.60;;;;;;5036612;28;20041;-72
2021/03/25 10:18:16;;;;;;;35.95;20.92;;;13.90;67.80;;;;;;5054804;28;20044;-72
2021/03/25 10:20:48;;;;;;;37.90;21.85;;;13.90;67.70;;;;;;5054590;28;20499;-72
2021/03/25 10:23:30;;;;;;;37.33;22.52;;;13.80;67.00;;;;;;5054520;28;20125;-72
2021/03/25 10:26:11;;;;;;;41.47;20.85;;;13.70;68.00;;;;;;5054257;28;20471;-71
2021/03/25 10:28:48;;;;;;;38.25;22.30;;;13.70;68.30;;;;;;5054715;28;20087;-71
2021/03/25 10:31:32;;;;;;;31.75;19.85;;;13.80;69.00;;;;;;5055143;28;20068;-71
2021/03/25 10:34:21;;;;;;;38.75;23.10;;;13.90;68.60;;;;;;5054394;28;20045;-71
2021/03/25 10:36:52;;;;;;;38.60;23.00;;;13.90;68.10;;;;;;5054348;28;20484;-71
2021/03/25 10:39:21;;;;;;;37.90;21.60;;;14.00;67.90;;;;;;5054789;28;20036;-71
2021/03/25 10:41:47;;;;;;;41.38;23.02;;;14.10;68.00;;;;;;5054198;28;20037;-71
2021/03/25 10:44:27;;;;;;;35.75;21.27;;;14.10;68.10;;;;;;5054660;28;20037;-70
2021/03/25 10:46:56;;;;;;;36.58;20.58;;;14.10;67.20;;;;;;5054086;28;20397;-71
2021/03/25 10:49:28;;;;;;;34.95;20.60;;;14.10;67.80;;;;;;5054345;28;20060;-71
2021/03/25 10:51:54;;;;;;;38.83;23.33;;;14.10;67.60;;;;;;5053717;28;20044;-71
2021/03/25 10:54:20;;;;;;;39.90;23.45;;;14.10;67.80;;;;;;5036567;28;20508;-71
2021/03/25 10:56:46;;;;;;;36.92;21.25;;;14.20;68.00;;;;;;5036120;28;20043;-71
2021/03/25 10:59:11;;;;;;;35.53;21.25;;;14.30;67.70;;;;;;5053827;28;20072;-70
2021/03/25 11:01:53;;;;;;;30.67;19.60;;;14.30;67.80;;;;;;5054001;28;20116;-71
2021/03/25 11:04:24;;;;;;;26.33;17.30;;;14.40;68.30;;;;;;5053688;28;20045;-72
2021/03/25 11:06:51;;;;;;;37.13;18.10;;;14.50;66.10;;;;;;5053711;28;20404;-71
2021/03/25 11:09:27;;;;;;;29.90;19.92;;;14.50;66.30;;;;;;5054213;28;20433;-71
2021/03/25 11:12:16;;;;;;;28.05;18.23;;;14.40;65.60;;;;;;5053681;28;20041;-71
2021/03/25 11:14:48;;;;;;;28.23;18.33;;;14.40;65.60;;;;;;5053565;28;20040;-71
2021/03/25 11:17:17;;;;;;;29.40;19.70;;;14.40;66.00;;;;;;5053406;28;20036;-71
2021/03/25 11:19:43;;;;;;;33.00;21.08;;;14.60;66.20;;;;;;5053875;28;20037;-72
2021/03/25 11:22:13;;;;;;;31.83;20.77;;;14.70;66.70;;;;;;5053697;28;20099;-71
2021/03/25 11:24:39;;;;;;;29.08;19.75;;;14.70;66.00;;;;;;5053117;28;20115;-72
2021/03/25 11:27:14;;;;;;;31.05;20.02;;;14.70;66.90;;;;;;5053562;28;20059;-71
2021/03/25 11:29:42;;;;;;;32.35;18.58;;;14.60;66.40;;;;;;5053446;28;20044;-71
2021/03/25 11:32:14;;;;;;;32.63;20.23;;;14.60;67.50;;;;;;5053533;28;20115;-71
2021/03/25 11:34:42;;;;;;;30.00;18.48;;;14.60;65.90;;;;;;5052956;28;20614;-72
2021/03/25 11:37:34;;;;;;;28.02;17.77;;;14.60;67.40;;;;;;5035398;28;20072;-72
2021/03/25 11:40:13;;;;;;;32.05;18.35;;;14.60;65.40;;;;;;5053386;28;20082;-72
2021/03/25 11:42:47;;;;;;;31.00;18.60;;;14.70;67.00;;;;;;5053215;28;20037;-72
2021/03/25 11:45:33;;;;;;;30.02;18.75;;;14.60;66.00;;;;;;5052939;28;20369;-71
2021/03/25 11:47:58;;;;;;;31.38;18.25;;;14.60;64.20;;;;;;5053136;28;20044;-71
2021/03/25 11:50:29;;;;;;;29.20;17.23;;;14.60;64.60;;;;;;5053600;28;20037;-71
2021/03/25 11:52:58;;;;;;;34.72;18.30;;;14.70;65.20;;;;;;5053236;28;20044;-71
2021/03/25 11:55:30;;;;;;;36.00;18.42;;;14.70;65.00;;;;;;5052764;28;20032;-71
2021/03/25 11:58:04;;;;;;;35.78;18.45;;;14.70;64.90;;;;;;5053092;28;20044;-71
2021/03/25 12:00:30;;;;;;;31.52;17.73;;;14.70;65.20;;;;;;5053325;28;20044;-72
2021/03/25 12:02:56;;;;;;;26.73;15.63;;;14.70;64.20;;;;;;5053565;28;20041;-72
2021/03/25 12:05:28;;;;;;;29.58;17.42;;;14.60;64.40;;;;;;5056535;28;20064;-72
2021/03/25 12:08:06;;;;;;;35.50;17.38;;;14.60;64.10;;;;;;5057058;28;20526;-71
2021/03/25 12:10:34;;;;;;;26.08;16.67;;;14.70;66.00;;;;;;5057418;28;20049;-71
2021/03/25 12:13:00;;;;;;;27.40;16.80;;;14.70;64.80;;;;;;5057507;28;20354;-72
2021/03/25 12:15:26;;;;;;;32.03;19.27;;;14.60;64.40;;;;;;5056565;28;20043;-72
2021/03/25 12:17:55;;;;;;;28.23;18.33;;;14.50;64.60;;;;;;5056855;28;20044;-72
2021/03/25 12:20:27;;;;;;;34.70;20.80;;;14.30;64.30;;;;;;5057210;28;20068;-72
2021/03/25 12:23:04;;;;;;;39.60;23.60;;;14.20;65.60;;;;;;5057256;28;20051;-71
2021/03/25 12:25:30;;;;;;;34.88;20.20;;;14.00;69.80;;;;;;5056393;28;20037;-72
2021/03/25 12:27:56;;;;;;;23.20;14.88;;;13.70;72.40;;;;;;5056649;28;20060;-72
2021/03/25 12:30:22;;;;;;;23.13;15.43;;;13.40;73.80;;;;;;5056936;28;20481;-71
2021/03/25 12:32:48;;;;;;;26.58;17.85;;;13.10;75.90;;;;;;5056695;28;20048;-72
2021/03/25 12:35:17;;;;;;;30.77;18.35;;;12.90;76.00;;;;;;5056194;28;20401;-72
2021/03/25 12:37:45;;;;;;;23.77;15.02;;;12.70;75.90;;;;;;5056526;28;20550;-72
2021/03/25 12:40:12;;;;;;;27.75;16.60;;;12.60;76.80;;;;;;5038675;28;20033;-72
2021/03/25 12:42:38;;;;;;;30.25;16.45;;;12.50;78.20;;;;;;5056259;28;20041;-72
2021/03/25 12:45:05;;;;;;;29.27;17.40;;;12.60;78.50;;;;;;5056464;28;20409;-72
2021/03/25 12:47:31;;;;;;;33.40;20.60;;;12.70;78.40;;;;;;5056201;28;20041;-72
2021/03/25 12:49:58;;;;;;;30.63;19.70;;;12.80;78.40;;;;;;5056832;28;20041;-71
2021/03/25 12:52:24;;;;;;;37.78;20.70;;;12.90;76.70;;;;;;5056254;28;20381;-71
2021/03/25 12:54:50;;;;;;;34.35;19.77;;;13.00;77.10;;;;;;5056212;28;20111;-72
2021/03/25 12:57:21;;;;;;;33.40;20.88;;;13.00;76.50;;;;;;5056590;28;20047;-72
2021/03/25 12:59:47;;;;;;;34.80;21.45;;;13.10;76.50;;;;;;5053635;28;20049;-72
2021/03/25 13:02:13;;;;;;;38.22;22.70;;;13.10;75.90;;;;;;5055684;28;20041;-72
2021/03/25 13:04:41;;;;;;;36.22;22.85;;;13.10;75.20;;;;;;5055135;28;20040;-72
2021/03/25 13:07:07;;;;;;;37.75;23.60;;;13.10;75.60;;;;;;5055891;28;20095;-72
2021/03/25 13:09:33;;;;;;;49.42;28.33;;;13.10;77.20;;;;;;5056238;28;20440;-71